createdAt,value
2023-01-10T00:01:06.488Z,100348.66
2023-01-10T00:02:08.305Z,100363.09
2023-01-10T00:03:11.901Z,100355.19
2023-01-10T00:04:14.352Z,100360.56
2023-01-10T00:05:16.271Z,100364.09
2023-01-10T00:06:18.104Z,100366.75
2023-01-10T00:07:19.889Z,100353.69
2023-01-10T00:08:21.783Z,100360.88
2023-01-10T00:09:23.567Z,100356.38
2023-01-10T00:10:26.028Z,100360.06
2023-01-10T00:11:46.318Z,100361.72
2023-01-10T00:13:06.984Z,100364.09
2023-01-10T00:14:08.933Z,100366.44
2023-01-10T00:15:11.108Z,100364.09
2023-01-10T00:16:13.014Z,100364.41
2023-01-10T00:17:14.826Z,100364.72
2023-01-10T00:18:16.772Z,100356.69
2023-01-10T00:19:18.600Z,100363.06
2023-01-10T00:20:20.380Z,100360.38
2023-01-10T00:21:22.186Z,100365.72
2023-01-10T00:22:25.878Z,100355.91
2023-01-10T00:23:28.606Z,100348.53
2023-01-10T00:24:30.439Z,100363.19
2023-01-10T00:25:34.369Z,100365.88
2023-01-10T00:26:36.253Z,100355.63
2023-01-10T00:27:38.136Z,100359.00
2023-01-10T00:28:40.029Z,100370.41
2023-01-10T00:29:41.888Z,100359.84
2023-01-10T00:30:43.747Z,100359.84
2023-01-10T00:31:45.573Z,100355.09
2023-01-10T00:32:47.343Z,100363.50
2023-01-10T00:33:49.229Z,100354.94
2023-01-10T00:34:51.116Z,100359.00
2023-01-10T00:35:52.985Z,100364.38
2023-01-10T00:36:54.785Z,100367.03
2023-01-10T00:38:01.516Z,100362.97
2023-01-10T00:39:04.504Z,100362.69
2023-01-10T00:40:10.896Z,100372.53
2023-01-10T00:41:31.524Z,100375.91
2023-01-10T00:42:51.984Z,100369.41
2023-01-10T00:43:59.786Z,100366.41
2023-01-10T00:45:01.578Z,100363.66
2023-01-10T00:46:03.608Z,100368.19
2023-01-10T00:47:05.489Z,100371.47
2023-01-10T00:48:07.311Z,100378.03
2023-01-10T00:49:09.089Z,100375.81
2023-01-10T00:50:11.836Z,100380.84
2023-01-10T00:51:13.683Z,100381.72
2023-01-10T00:52:15.577Z,100376.50
2023-01-10T00:53:17.374Z,100378.31
2023-01-10T00:54:19.214Z,100375.66
2023-01-10T00:55:21.063Z,100381.00
2023-01-10T00:56:22.876Z,100368.25
2023-01-10T00:57:24.732Z,100383.66
2023-01-10T00:58:26.517Z,100378.31
2023-01-10T00:59:29.570Z,100379.31
2023-01-10T01:00:31.547Z,100385.53
2023-01-10T01:01:33.717Z,100373.78
2023-01-10T01:02:36.541Z,100377.63
2023-01-10T01:03:38.424Z,100376.97
2023-01-10T01:04:40.193Z,100384.00
2023-01-10T01:05:44.195Z,100386.66
2023-01-10T01:06:47.746Z,100377.63
2023-01-10T01:07:52.587Z,100389.34
2023-01-10T01:08:54.457Z,100377.44
2023-01-10T01:10:14.709Z,100375.78
2023-01-10T01:11:16.626Z,100379.03
2023-01-10T01:12:18.399Z,100380.31
2023-01-10T01:13:21.679Z,100382.31
2023-01-10T01:14:24.450Z,100386.66
2023-01-10T01:15:27.764Z,100387.84
2023-01-10T01:16:29.536Z,100380.50
2023-01-10T01:17:31.476Z,100383.31
2023-01-10T01:18:34.176Z,100382.47
2023-01-10T01:19:35.964Z,100364.84
2023-01-10T01:20:40.219Z,100374.59
2023-01-10T01:21:42.016Z,100381.63
2023-01-10T01:22:43.809Z,100385.31
2023-01-10T01:23:45.649Z,100375.78
2023-01-10T01:24:47.395Z,100383.47
2023-01-10T01:25:53.321Z,100377.78
2023-01-10T01:26:55.087Z,100379.94
2023-01-10T01:27:56.879Z,100384.63
2023-01-10T01:28:58.639Z,100395.31
2023-01-10T01:30:01.436Z,100387.28
2023-01-10T01:31:10.847Z,100375.53
2023-01-10T01:32:12.771Z,100379.13
2023-01-10T01:33:14.676Z,100388.97
2023-01-10T01:34:16.705Z,100384.63
2023-01-10T01:35:18.759Z,100365.47
2023-01-10T01:36:20.754Z,100383.94
2023-01-10T01:37:22.769Z,100377.78
2023-01-10T01:38:24.548Z,100386.63
2023-01-10T01:39:26.435Z,100388.47
2023-01-10T01:40:28.550Z,100385.78
2023-01-10T01:41:49.072Z,100383.13
2023-01-10T01:42:55.755Z,100370.88
2023-01-10T01:44:14.456Z,100380.81
2023-01-10T01:45:32.529Z,100384.97
2023-01-10T01:46:39.294Z,100378.81
2023-01-10T01:47:47.628Z,100387.84
2023-01-10T01:48:49.488Z,100387.47
2023-01-10T01:49:51.872Z,100381.94
2023-01-10T01:50:55.983Z,100391.97
2023-01-10T01:52:04.594Z,100376.41
2023-01-10T01:53:18.621Z,100393.66
2023-01-10T01:54:20.699Z,100392.81
2023-01-10T01:55:24.691Z,100399.16
2023-01-10T01:56:32.786Z,100392.59
2023-01-10T01:57:35.675Z,100383.03
2023-01-10T01:59:09.687Z,100387.94
2023-01-10T02:00:12.415Z,100396.84
2023-01-10T02:01:15.909Z,100385.63
2023-01-10T02:02:23.812Z,100391.28
2023-01-10T02:03:27.230Z,100394.97
2023-01-10T02:04:38.933Z,100393.28
2023-01-10T02:05:42.672Z,100390.47
2023-01-10T02:06:47.560Z,100386.25
2023-01-10T02:07:56.236Z,100381.91
2023-01-10T02:09:10.804Z,100391.47
2023-01-10T02:10:57.426Z,100386.47
2023-01-10T02:11:59.452Z,100398.38
2023-01-10T02:13:08.304Z,100389.97
2023-01-10T02:14:12.213Z,100388.59
2023-01-10T02:15:16.449Z,100385.25
2023-01-10T02:16:18.610Z,100390.59
2023-01-10T02:17:20.481Z,100385.56
2023-01-10T02:18:24.354Z,100375.50
2023-01-10T02:19:44.451Z,100382.88
2023-01-10T02:20:48.989Z,100379.06
2023-01-10T02:22:03.455Z,100381.59
2023-01-10T02:23:32.636Z,100388.28
2023-01-10T02:24:53.740Z,100379.44
2023-01-10T02:26:16.789Z,100380.28
2023-01-10T02:28:08.101Z,100381.31
2023-01-10T02:29:27.997Z,100381.31
2023-01-10T02:31:19.269Z,100375.81
2023-01-10T02:32:43.462Z,100374.28
2023-01-10T02:34:13.185Z,100379.13
2023-01-10T02:35:54.565Z,100383.31
2023-01-10T02:37:08.394Z,100383.31
2023-01-10T02:38:37.225Z,100385.31
2023-01-10T02:39:44.928Z,100381.25
2023-01-10T02:41:03.421Z,100378.91
2023-01-10T02:42:09.621Z,100380.91
2023-01-10T02:43:46.153Z,100383.25
2023-01-10T02:45:00.503Z,100360.44
2023-01-10T02:46:15.109Z,100377.41
2023-01-10T02:47:17.202Z,100374.88
2023-01-10T02:48:19.124Z,100377.00
2023-01-10T02:49:20.944Z,100381.66
2023-01-10T02:50:43.672Z,100365.94
2023-01-10T02:51:45.501Z,100377.84
2023-01-10T02:52:47.278Z,100382.53
2023-01-10T02:53:55.983Z,100381.84
2023-01-10T02:55:01.588Z,100373.81
2023-01-10T02:56:29.463Z,100381.84
2023-01-10T02:57:53.083Z,100387.25
2023-01-10T02:59:16.467Z,100381.22
2023-01-10T03:00:31.557Z,100382.75
2023-01-10T03:01:40.651Z,100375.88
2023-01-10T03:03:02.671Z,100380.06
2023-01-10T03:04:28.316Z,100358.75
2023-01-10T03:05:35.945Z,100379.22
2023-01-10T03:06:56.362Z,100377.00
2023-01-10T03:08:09.912Z,100370.50
2023-01-10T03:09:23.423Z,100372.50
2023-01-10T03:10:57.763Z,100374.19
2023-01-10T03:12:12.900Z,100376.69
2023-01-10T03:13:25.874Z,100367.47
2023-01-10T03:14:30.719Z,100374.50
2023-01-10T03:15:37.145Z,100378.16
2023-01-10T03:16:41.805Z,100373.13
2023-01-10T03:17:47.823Z,100375.13
2023-01-10T03:18:59.029Z,100366.56
2023-01-10T03:20:05.097Z,100372.28
2023-01-10T03:21:08.919Z,100371.59
2023-01-10T03:22:11.925Z,100367.72
2023-01-10T03:23:16.924Z,100376.28
2023-01-10T03:24:26.467Z,100370.78
2023-01-10T03:25:34.643Z,100376.13
2023-01-10T03:26:52.770Z,100367.78
2023-01-10T03:28:15.273Z,100367.63
2023-01-10T03:29:25.511Z,100371.81
2023-01-10T03:30:45.668Z,100360.94
2023-01-10T03:31:57.681Z,100371.81
2023-01-10T03:33:00.091Z,100373.66
2023-01-10T03:34:02.976Z,100366.09
2023-01-10T03:35:06.298Z,100370.78
2023-01-10T03:36:37.900Z,100370.16
2023-01-10T03:37:55.437Z,100361.75
2023-01-10T03:39:12.046Z,100367.47
2023-01-10T03:40:27.215Z,100370.16
2023-01-10T03:41:29.026Z,100375.50
2023-01-10T03:42:58.292Z,100373.97
2023-01-10T03:44:24.674Z,100370.16
2023-01-10T03:45:46.196Z,100364.44
2023-01-10T03:47:30.042Z,100373.19
2023-01-10T03:48:37.059Z,100371.50
2023-01-10T03:49:42.500Z,100360.59
2023-01-10T03:50:45.823Z,100375.13
2023-01-10T03:51:48.762Z,100363.22
2023-01-10T03:52:50.646Z,100367.41
2023-01-10T03:53:52.521Z,100354.69
2023-01-10T03:54:54.385Z,100365.88
2023-01-10T03:55:56.351Z,100360.31
2023-01-10T03:56:58.179Z,100368.56
2023-01-10T03:57:59.957Z,100370.41
2023-01-10T03:59:01.757Z,100372.41
2023-01-10T04:00:05.112Z,100370.72
2023-01-10T04:01:07.045Z,100368.72
2023-01-10T04:02:09.036Z,100358.94
2023-01-10T04:03:11.193Z,100368.72
2023-01-10T04:04:13.160Z,100372.41
2023-01-10T04:05:15.026Z,100373.22
2023-01-10T04:06:17.718Z,100365.50
2023-01-10T04:07:19.501Z,100361.31
2023-01-10T04:08:21.288Z,100372.41
2023-01-10T04:09:23.318Z,100365.81
2023-01-10T04:10:27.174Z,100361.47
2023-01-10T04:11:28.979Z,100371.41
2023-01-10T04:12:31.301Z,100369.00
2023-01-10T04:13:33.135Z,100373.09
2023-01-10T04:14:34.985Z,100362.97
2023-01-10T04:15:36.812Z,100374.06
2023-01-10T04:16:38.639Z,100374.06
2023-01-10T04:17:40.399Z,100366.50
2023-01-10T04:18:42.199Z,100374.06
2023-01-10T04:19:44.328Z,100368.72
2023-01-10T04:20:46.155Z,100371.41
2023-01-10T04:21:48.007Z,100358.63
2023-01-10T04:22:51.334Z,100367.88
2023-01-10T04:23:53.534Z,100372.22
2023-01-10T04:24:55.311Z,100365.19
2023-01-10T04:25:57.120Z,100376.75
2023-01-10T04:26:58.885Z,100380.25
2023-01-10T04:28:00.639Z,100368.72
2023-01-10T04:29:02.500Z,100370.53
2023-01-10T04:30:04.834Z,100372.41
2023-01-10T04:31:06.683Z,100361.00
2023-01-10T04:32:08.539Z,100371.41
2023-01-10T04:33:11.762Z,100367.06
2023-01-10T04:34:13.698Z,100363.38
2023-01-10T04:35:15.602Z,100367.06
2023-01-10T04:36:17.415Z,100360.31
2023-01-10T04:37:19.875Z,100362.69
2023-01-10T04:38:21.816Z,100368.72
2023-01-10T04:39:23.645Z,100367.06
2023-01-10T04:40:25.468Z,100356.94
2023-01-10T04:41:27.239Z,100361.84
2023-01-10T04:42:29.036Z,100358.47
2023-01-10T04:43:30.928Z,100359.84
2023-01-10T04:44:32.704Z,100361.00
2023-01-10T04:45:34.694Z,100369.88
2023-01-10T04:46:36.507Z,100357.34
2023-01-10T04:47:38.264Z,100361.84
2023-01-10T04:48:40.220Z,100322.53
2023-01-10T04:49:42.033Z,100365.38
2023-01-10T04:50:48.613Z,100365.38
2023-01-10T04:51:50.545Z,100362.69
2023-01-10T04:52:53.007Z,100353.28
2023-01-10T04:53:55.245Z,100349.91
2023-01-10T04:54:57.516Z,100357.34
2023-01-10T04:56:04.526Z,100356.81
2023-01-10T04:57:06.609Z,100358.16
2023-01-10T04:58:08.428Z,100354.69
2023-01-10T04:59:10.453Z,100360.84
2023-01-10T05:00:13.264Z,100362.84
2023-01-10T05:01:20.379Z,100358.47
2023-01-10T05:02:22.309Z,100361.69
2023-01-10T05:03:24.145Z,100367.19
2023-01-10T05:04:26.070Z,100349.91
2023-01-10T05:05:28.586Z,100360.31
2023-01-10T05:06:30.537Z,100354.75
2023-01-10T05:07:32.343Z,100364.66
2023-01-10T05:08:34.249Z,100358.47
2023-01-10T05:09:36.194Z,100345.25
2023-01-10T05:10:37.989Z,100360.63
2023-01-10T05:11:39.846Z,100363.84
2023-01-10T05:12:41.739Z,100352.78
2023-01-10T05:13:43.545Z,100365.66
2023-01-10T05:14:45.400Z,100352.78
2023-01-10T05:15:47.316Z,100359.47
2023-01-10T05:16:49.134Z,100359.47
2023-01-10T05:17:57.368Z,100356.44
2023-01-10T05:18:59.205Z,100357.25
2023-01-10T05:20:00.983Z,100357.94
2023-01-10T05:21:04.986Z,100359.25
2023-01-10T05:22:06.812Z,100361.31
2023-01-10T05:23:08.635Z,100374.53
2023-01-10T05:24:10.611Z,100360.63
2023-01-10T05:25:12.379Z,100369.31
2023-01-10T05:26:17.457Z,100363.28
2023-01-10T05:27:19.347Z,100368.63
2023-01-10T05:28:21.283Z,100382.69
2023-01-10T05:29:23.072Z,100371.00
2023-01-10T05:30:24.830Z,100376.53
2023-01-10T05:31:26.806Z,100384.69
2023-01-10T05:32:29.774Z,100380.19
2023-01-10T05:33:31.587Z,100380.03
2023-01-10T05:34:33.476Z,100371.19
2023-01-10T05:35:35.311Z,100377.53
2023-01-10T05:36:37.105Z,100371.19
2023-01-10T05:37:38.904Z,100386.53
2023-01-10T05:38:40.891Z,100374.00
2023-01-10T05:39:43.650Z,100380.19
2023-01-10T05:40:45.613Z,100382.00
2023-01-10T05:41:47.661Z,100375.97
2023-01-10T05:42:49.650Z,100388.22
2023-01-10T05:43:52.851Z,100382.19
2023-01-10T05:44:54.748Z,100374.97
2023-01-10T05:45:56.792Z,100386.53
2023-01-10T05:46:58.600Z,100383.88
2023-01-10T05:48:00.398Z,100377.66
2023-01-10T05:49:02.180Z,100372.31
2023-01-10T05:50:04.221Z,100375.97
2023-01-10T05:51:06.408Z,100384.00
2023-01-10T05:52:08.327Z,100361.78
2023-01-10T05:53:10.215Z,100364.28
2023-01-10T05:54:12.109Z,100370.81
2023-01-10T05:55:13.870Z,100355.59
2023-01-10T05:56:15.655Z,100372.47
2023-01-10T05:57:19.229Z,100360.09
2023-01-10T05:58:21.212Z,100371.63
2023-01-10T05:59:30.362Z,100362.91
2023-01-10T06:00:32.417Z,100359.78
2023-01-10T06:01:34.236Z,100364.28
2023-01-10T06:02:36.370Z,100364.28
2023-01-10T06:03:38.227Z,100364.47
2023-01-10T06:04:40.044Z,100370.81
2023-01-10T06:05:41.880Z,100369.13
2023-01-10T06:06:43.753Z,100363.59
2023-01-10T06:07:45.579Z,100367.13
2023-01-10T06:08:47.443Z,100355.59
2023-01-10T06:09:51.354Z,100354.38
2023-01-10T06:10:53.174Z,100337.25
2023-01-10T06:11:54.962Z,100374.66
2023-01-10T06:12:56.871Z,100364.66
2023-01-10T06:13:58.785Z,100361.97
2023-01-10T06:15:00.708Z,100362.53
2023-01-10T06:16:03.002Z,100360.53
2023-01-10T06:17:08.657Z,100350.28
2023-01-10T06:18:12.154Z,100348.47
2023-01-10T06:19:14.441Z,100370.16
2023-01-10T06:20:16.755Z,100371.66
2023-01-10T06:21:18.615Z,100371.34
2023-01-10T06:22:20.377Z,100361.19
2023-01-10T06:23:22.263Z,100361.34
2023-01-10T06:24:24.027Z,100368.56
2023-01-10T06:25:25.879Z,100361.22
2023-01-10T06:26:27.724Z,100363.44
2023-01-10T06:27:29.576Z,100360.44
2023-01-10T06:28:31.439Z,100365.50
2023-01-10T06:29:33.324Z,100359.31
2023-01-10T06:30:37.868Z,100364.72
2023-01-10T06:31:39.718Z,100363.41
2023-01-10T06:32:42.533Z,100349.34
2023-01-10T06:33:44.340Z,100366.25
2023-01-10T06:34:46.113Z,100366.78
2023-01-10T06:35:48.305Z,100353.28
2023-01-10T06:36:50.157Z,100348.75
2023-01-10T06:37:52.012Z,100357.81
2023-01-10T06:38:53.887Z,100352.44
2023-01-10T06:39:55.666Z,100362.50
2023-01-10T06:40:57.536Z,100359.50
2023-01-10T06:41:59.371Z,100359.19
2023-01-10T06:43:01.324Z,100356.22
2023-01-10T06:44:03.153Z,100362.25
2023-01-10T06:45:05.891Z,100364.59
2023-01-10T06:46:09.958Z,100353.38
2023-01-10T06:47:11.916Z,100360.28
2023-01-10T06:48:13.710Z,100359.09
2023-01-10T06:49:15.575Z,100353.56
2023-01-10T06:50:17.496Z,100359.63
2023-01-10T06:51:20.286Z,100360.28
2023-01-10T06:52:22.345Z,100363.63
2023-01-10T06:53:24.110Z,100357.28
2023-01-10T06:54:25.972Z,100356.94
2023-01-10T06:55:28.701Z,100355.81
2023-01-10T06:56:30.512Z,100353.13
2023-01-10T06:57:35.529Z,100337.53
2023-01-10T06:58:39.175Z,100347.25
2023-01-10T06:59:40.953Z,100338.22
2023-01-10T07:00:42.750Z,100339.06
2023-01-10T07:01:44.746Z,100340.06
2023-01-10T07:02:46.629Z,100344.91
2023-01-10T07:03:48.821Z,100337.22
2023-01-10T07:04:50.633Z,100348.28
2023-01-10T07:05:52.415Z,100349.97
2023-01-10T07:06:54.906Z,100352.50
2023-01-10T07:07:58.752Z,100339.56
2023-01-10T07:09:00.610Z,100336.88
2023-01-10T07:10:03.482Z,100345.13
2023-01-10T07:11:05.520Z,100353.03
2023-01-10T07:12:07.347Z,100350.50
2023-01-10T07:13:09.674Z,100341.47
2023-01-10T07:14:11.424Z,100343.13
2023-01-10T07:15:13.391Z,100345.00
2023-01-10T07:16:16.692Z,100342.13
2023-01-10T07:17:18.958Z,100328.53
2023-01-10T07:18:21.269Z,100341.97
2023-01-10T07:19:23.080Z,100325.34
2023-01-10T07:20:25.326Z,100353.53
2023-01-10T07:21:27.449Z,100345.66
2023-01-10T07:22:29.211Z,100346.50
2023-01-10T07:23:31.517Z,100351.69
2023-01-10T07:24:34.093Z,100336.94
2023-01-10T07:25:35.931Z,100346.34
2023-01-10T07:26:37.782Z,100349.84
2023-01-10T07:27:43.359Z,100339.78
2023-01-10T07:28:48.331Z,100349.03
2023-01-10T07:29:50.126Z,100352.38
2023-01-10T07:30:51.879Z,100347.00
2023-01-10T07:31:53.728Z,100347.16
2023-01-10T07:32:57.141Z,100351.69
2023-01-10T07:33:58.969Z,100337.44
2023-01-10T07:35:00.806Z,100346.16
2023-01-10T07:36:03.453Z,100336.63
2023-01-10T07:37:05.239Z,100347.00
2023-01-10T07:38:07.435Z,100340.78
2023-01-10T07:39:09.265Z,100343.66
2023-01-10T07:40:11.784Z,100344.16
2023-01-10T07:41:13.649Z,100331.25
2023-01-10T07:42:15.597Z,100341.31
2023-01-10T07:43:18.431Z,100338.63
2023-01-10T07:44:20.225Z,100343.00
2023-01-10T07:45:21.994Z,100348.69
2023-01-10T07:46:23.897Z,100341.13
2023-01-10T07:47:25.732Z,100333.59
2023-01-10T07:48:27.637Z,100337.09
2023-01-10T07:49:29.511Z,100340.66
2023-01-10T07:50:34.358Z,100342.81
2023-01-10T07:51:36.258Z,100346.34
2023-01-10T07:52:38.506Z,100347.00
2023-01-10T07:53:40.633Z,100350.19
2023-01-10T07:54:42.458Z,100349.69
2023-01-10T07:55:46.120Z,100352.38
2023-01-10T07:56:48.120Z,100351.38
2023-01-10T07:57:51.567Z,100342.13
2023-01-10T07:58:53.356Z,100337.63
2023-01-10T07:59:55.169Z,100346.00
2023-01-10T08:01:01.782Z,100337.31
2023-01-10T08:02:03.668Z,100352.19
2023-01-10T08:03:07.038Z,100337.44
2023-01-10T08:04:09.534Z,100313.16
2023-01-10T08:05:11.766Z,100346.16
2023-01-10T08:06:15.933Z,100344.34
2023-01-10T08:07:18.910Z,100348.03
2023-01-10T08:08:20.663Z,100350.53
2023-01-10T08:09:22.457Z,100334.94
2023-01-10T08:10:25.994Z,100350.53
2023-01-10T08:11:27.852Z,100346.00
2023-01-10T08:12:29.668Z,100343.47
2023-01-10T08:13:32.419Z,100346.16
2023-01-10T08:14:34.233Z,100338.13
2023-01-10T08:15:36.151Z,100343.47
2023-01-10T08:16:37.965Z,100339.97
2023-01-10T08:17:40.500Z,100331.75
2023-01-10T08:18:43.385Z,100342.66
2023-01-10T08:19:45.683Z,100339.97
2023-01-10T08:20:49.931Z,100336.63
2023-01-10T08:21:51.699Z,100339.31
2023-01-10T08:22:53.504Z,100334.63
2023-01-10T08:23:55.357Z,100336.28
2023-01-10T08:24:57.158Z,100340.97
2023-01-10T08:25:59.749Z,100343.66
2023-01-10T08:27:02.053Z,100337.31
2023-01-10T08:28:03.876Z,100330.75
2023-01-10T08:29:05.731Z,100329.25
2023-01-10T08:30:08.270Z,100339.97
2023-01-10T08:31:10.963Z,100347.16
2023-01-10T08:32:13.606Z,100348.03
2023-01-10T08:33:15.384Z,100341.81
2023-01-10T08:34:17.331Z,100346.34
2023-01-10T08:35:19.190Z,100342.00
2023-01-10T08:36:22.226Z,100340.13
2023-01-10T08:37:24.260Z,100333.28
2023-01-10T08:38:26.082Z,100346.34
2023-01-10T08:39:30.491Z,100337.63
2023-01-10T08:40:32.383Z,100341.81
2023-01-10T08:41:34.285Z,100340.13
2023-01-10T08:42:36.144Z,100343.66
2023-01-10T08:43:38.063Z,100341.13
2023-01-10T08:44:39.807Z,100345.50
2023-01-10T08:45:41.719Z,100333.28
2023-01-10T08:46:43.693Z,100339.31
2023-01-10T08:47:45.552Z,100336.63
2023-01-10T08:48:48.578Z,100341.13
2023-01-10T08:49:50.333Z,100339.31
2023-01-10T08:50:52.140Z,100337.63
2023-01-10T08:51:53.946Z,100321.53
2023-01-10T08:52:59.473Z,100328.91
2023-01-10T08:54:01.325Z,100340.31
2023-01-10T08:55:03.207Z,100329.41
2023-01-10T08:56:05.738Z,100337.63
2023-01-10T08:57:07.598Z,100330.59
2023-01-10T08:58:10.057Z,100323.56
2023-01-10T08:59:11.874Z,100335.97
2023-01-10T09:00:14.486Z,100328.91
2023-01-10T09:01:16.343Z,100325.56
2023-01-10T09:02:18.180Z,100322.69
2023-01-10T09:03:20.103Z,100329.75
2023-01-10T09:04:21.981Z,100323.56
2023-01-10T09:05:28.220Z,100323.56
2023-01-10T09:06:30.330Z,100315.84
2023-01-10T09:07:32.280Z,100328.06
2023-01-10T09:08:34.675Z,100334.28
2023-01-10T09:09:37.150Z,100324.22
2023-01-10T09:10:39.007Z,100328.91
2023-01-10T09:11:41.923Z,100327.25
2023-01-10T09:12:55.966Z,100323.56
2023-01-10T09:13:57.844Z,100325.91
2023-01-10T09:14:59.660Z,100323.38
2023-01-10T09:16:01.505Z,100324.38
2023-01-10T09:17:03.299Z,100320.69
2023-01-10T09:18:07.703Z,100328.91
2023-01-10T09:19:09.526Z,100326.06
2023-01-10T09:20:11.829Z,100326.06
2023-01-10T09:21:13.675Z,100285.97
2023-01-10T09:22:16.087Z,100319.03
2023-01-10T09:23:20.589Z,100318.19
2023-01-10T09:24:22.501Z,100330.59
2023-01-10T09:25:25.215Z,100320.88
2023-01-10T09:26:27.124Z,100323.56
2023-01-10T09:27:28.975Z,100327.91
2023-01-10T09:28:30.769Z,100317.19
2023-01-10T09:29:32.528Z,100316.34
2023-01-10T09:30:34.692Z,100314.66
2023-01-10T09:31:36.547Z,100312.84
2023-01-10T09:32:38.474Z,100315.53
2023-01-10T09:33:47.240Z,100312.84
2023-01-10T09:34:49.429Z,100313.50
2023-01-10T09:35:51.271Z,100317.00
2023-01-10T09:36:54.512Z,100315.34
2023-01-10T09:37:58.440Z,100312.66
2023-01-10T09:39:00.391Z,100301.44
2023-01-10T09:40:02.340Z,100308.28
2023-01-10T09:41:30.295Z,100312.50
2023-01-10T09:42:51.979Z,100307.47
2023-01-10T09:44:21.193Z,100301.09
2023-01-10T09:45:37.439Z,100304.47
2023-01-10T09:46:58.029Z,100307.81
2023-01-10T09:48:05.413Z,100305.66
2023-01-10T09:49:21.734Z,100306.81
2023-01-10T09:50:33.102Z,100293.75
2023-01-10T09:51:40.797Z,100298.91
2023-01-10T09:52:47.840Z,100298.09
2023-01-10T09:53:53.818Z,100295.56
2023-01-10T09:55:00.324Z,100300.09
2023-01-10T09:56:02.245Z,100300.09
2023-01-10T09:57:04.139Z,100307.47
2023-01-10T09:58:18.069Z,100299.59
2023-01-10T09:59:50.977Z,100300.44
2023-01-10T10:00:56.144Z,100304.78
2023-01-10T10:02:14.136Z,100297.09
2023-01-10T10:03:40.163Z,100295.75
2023-01-10T10:04:47.218Z,100287.03
2023-01-10T10:05:50.542Z,100294.41
2023-01-10T10:06:54.043Z,100288.53
2023-01-10T10:08:05.062Z,100298.44
2023-01-10T10:09:08.936Z,100288.38
2023-01-10T10:10:41.384Z,100291.38
2023-01-10T10:11:43.261Z,100281.69
2023-01-10T10:13:04.059Z,100275.66
2023-01-10T10:14:28.039Z,100284.34
2023-01-10T10:15:42.446Z,100287.03
2023-01-10T10:16:47.009Z,100283.69
2023-01-10T10:17:55.024Z,100290.06
2023-01-10T10:19:11.481Z,100285.19
2023-01-10T10:20:31.899Z,100285.50
2023-01-10T10:21:58.296Z,100288.03
2023-01-10T10:23:13.368Z,100294.06
2023-01-10T10:25:12.215Z,100282.50
2023-01-10T10:26:33.823Z,100282.69
2023-01-10T10:27:49.517Z,100278.84
2023-01-10T10:29:15.809Z,100284.34
2023-01-10T10:30:23.332Z,100281.69
2023-01-10T10:31:34.725Z,100278.47
2023-01-10T10:32:51.553Z,100274.97
2023-01-10T10:34:00.783Z,100280.34
2023-01-10T10:35:28.847Z,100270.78
2023-01-10T10:37:08.943Z,100282.84
2023-01-10T10:38:32.232Z,100272.28
2023-01-10T10:39:44.402Z,100281.69
2023-01-10T10:40:47.110Z,100273.63
2023-01-10T10:41:53.310Z,100278.81
2023-01-10T10:42:57.375Z,100279.00
2023-01-10T10:44:04.851Z,100278.16
2023-01-10T10:45:15.407Z,100266.41
2023-01-10T10:46:20.661Z,100275.31
2023-01-10T10:47:24.233Z,100274.63
2023-01-10T10:48:30.471Z,100272.13
2023-01-10T10:49:44.414Z,100254.53
2023-01-10T10:50:58.128Z,100261.06
2023-01-10T10:52:03.713Z,100268.09
2023-01-10T10:53:06.037Z,100265.59
2023-01-10T10:54:13.114Z,100277.31
2023-01-10T10:55:17.912Z,100263.25
2023-01-10T10:56:23.168Z,100274.78
2023-01-10T10:57:31.579Z,100267.59
2023-01-10T10:58:33.926Z,100265.94
2023-01-10T10:59:36.446Z,100264.06
2023-01-10T11:00:38.337Z,100264.94
2023-01-10T11:01:43.687Z,100253.69
2023-01-10T11:03:01.421Z,100261.56
2023-01-10T11:04:10.477Z,100257.03
2023-01-10T11:05:23.874Z,100260.03
2023-01-10T11:06:28.815Z,100253.88
2023-01-10T11:07:36.764Z,100258.56
2023-01-10T11:08:43.638Z,100250.50
2023-01-10T11:10:13.295Z,100253.19
2023-01-10T11:11:27.052Z,100262.25
2023-01-10T11:12:36.052Z,100260.72
2023-01-10T11:13:46.485Z,100267.94
2023-01-10T11:14:51.429Z,100264.59
2023-01-10T11:15:55.988Z,100264.59
2023-01-10T11:17:26.053Z,100254.19
2023-01-10T11:18:30.664Z,100257.03
2023-01-10T11:19:32.436Z,100253.34
2023-01-10T11:20:35.045Z,100256.69
2023-01-10T11:21:40.898Z,100259.56
2023-01-10T11:22:55.304Z,100262.91
2023-01-10T11:23:57.578Z,100257.56
2023-01-10T11:25:03.271Z,100255.88
2023-01-10T11:26:08.594Z,100262.25
2023-01-10T11:27:21.791Z,100262.91
2023-01-10T11:28:29.721Z,100254.88
2023-01-10T11:29:40.348Z,100253.88
2023-01-10T11:30:48.575Z,100249.50
2023-01-10T11:31:51.763Z,100242.28
2023-01-10T11:32:58.156Z,100245.16
2023-01-10T11:34:02.795Z,100250.50
2023-01-10T11:35:16.302Z,100242.81
2023-01-10T11:36:18.089Z,100242.28
2023-01-10T11:37:25.169Z,100253.19
2023-01-10T11:38:30.233Z,100247.84
2023-01-10T11:39:33.553Z,100244.31
2023-01-10T11:40:38.981Z,100246.16
2023-01-10T11:41:40.859Z,100242.63
2023-01-10T11:42:42.925Z,100244.97
2023-01-10T11:43:44.822Z,100240.94
2023-01-10T11:44:46.583Z,100241.13
2023-01-10T11:45:55.004Z,100234.59
2023-01-10T11:46:59.460Z,100237.78
2023-01-10T11:48:19.372Z,100242.63
2023-01-10T11:49:30.911Z,100243.13
2023-01-10T11:50:36.375Z,100233.44
2023-01-10T11:51:44.247Z,100243.28
2023-01-10T11:52:47.739Z,100252.19
2023-01-10T11:53:57.373Z,100248.00
2023-01-10T11:55:00.525Z,100248.66
2023-01-10T11:56:03.273Z,100247.84
2023-01-10T11:57:26.620Z,100238.28
2023-01-10T11:58:34.571Z,100242.13
2023-01-10T11:59:38.454Z,100249.16
2023-01-10T12:00:44.022Z,100235.59
2023-01-10T12:01:48.135Z,100233.75
2023-01-10T12:02:52.604Z,100238.47
2023-01-10T12:03:55.354Z,100226.41
2023-01-10T12:05:00.828Z,100243.47
2023-01-10T12:06:15.187Z,100241.63
2023-01-10T12:07:19.155Z,100229.75
2023-01-10T12:08:32.221Z,100233.44
2023-01-10T12:09:42.804Z,100232.41
2023-01-10T12:10:58.216Z,100227.06
2023-01-10T12:12:23.312Z,100228.72
2023-01-10T12:13:25.089Z,100224.72
2023-01-10T12:14:27.988Z,100226.88
2023-01-10T12:15:31.590Z,100229.75
2023-01-10T12:16:34.992Z,100227.41
2023-01-10T12:17:37.868Z,100226.53
2023-01-10T12:18:39.696Z,100205.56
2023-01-10T12:19:41.471Z,100217.69
2023-01-10T12:20:52.083Z,100220.38
2023-01-10T12:21:55.862Z,100201.88
2023-01-10T12:23:19.989Z,100216.34
2023-01-10T12:24:34.035Z,100221.50
2023-01-10T12:25:42.518Z,100220.50
2023-01-10T12:26:45.988Z,100217.16
2023-01-10T12:27:50.489Z,100219.03
2023-01-10T12:28:54.473Z,100220.19
2023-01-10T12:30:13.121Z,100215.50
2023-01-10T12:31:15.787Z,100218.00
2023-01-10T12:32:28.067Z,100206.94
2023-01-10T12:33:36.788Z,100221.69